Time;durP1;ratioP1;P1;durP2;ratioP2;P2;SDS_P1;SDS_P2;PMS_P1;PMS_P2;Temp;Humidity;BMP_temperature;BMP_pressure;BME280_temperature;BME280_humidity;BME280_pressure;Samples;Min_cycle;Max_cycle;Signal;HPM_P1;HPM_P2
2023/08/19 00:02:01;;;;;;;11.10;9.93;;;23.70;99.90;;;;;;5015008;28;20440;-50
2023/08/19 00:04:29;;;;;;;12.07;11.07;;;23.70;99.90;;;;;;5015049;28;20457;-50
2023/08/19 00:06:56;;;;;;;11.00;9.90;;;23.70;99.90;;;;;;5014467;28;20444;-50
2023/08/19 00:09:23;;;;;;;13.20;11.90;;;23.70;99.90;;;;;;5015061;28;20873;-49
2023/08/19 00:11:49;;;;;;;10.90;9.90;;;23.60;99.90;;;;;;5014857;28;20443;-49
2023/08/19 00:14:16;;;;;;;12.50;11.50;;;23.60;99.90;;;;;;5013141;28;20996;-49
2023/08/19 00:16:43;;;;;;;12.37;11.07;;;23.60;99.90;;;;;;5014254;28;20524;-49
2023/08/19 00:19:10;;;;;;;12.07;11.00;;;23.60;99.90;;;;;;5014807;28;20436;-50
2023/08/19 00:21:38;;;;;;;12.07;11.07;;;23.50;99.90;;;;;;5014726;28;20447;-49
2023/08/19 00:24:05;;;;;;;12.40;11.30;;;23.50;99.90;;;;;;5014497;28;20854;-49
2023/08/19 00:26:31;;;;;;;12.07;10.90;;;23.50;99.90;;;;;;5014407;28;20436;-50
2023/08/19 00:28:58;;;;;;;11.07;10.17;;;23.50;99.90;;;;;;5012910;28;20963;-50
2023/08/19 00:31:26;;;;;;;11.73;10.83;;;23.50;99.90;;;;;;5014424;28;20436;-50
2023/08/19 00:33:53;;;;;;;12.73;11.43;;;23.40;99.90;;;;;;5014357;28;20439;-49
2023/08/19 00:36:20;;;;;;;12.43;11.17;;;23.40;99.90;;;;;;5014517;28;20545;-50
2023/08/19 00:38:51;;;;;;;11.63;10.63;;;23.40;99.90;;;;;;5012786;28;20451;-49
2023/08/19 00:41:18;;;;;;;12.00;11.00;;;23.40;99.90;;;;;;5014363;28;20432;-49
2023/08/19 00:43:45;;;;;;;12.20;11.17;;;23.20;99.90;;;;;;5012865;28;20545;-49
2023/08/19 00:46:11;;;;;;;11.60;10.60;;;23.30;99.90;;;;;;5013091;28;20532;-49
2023/08/19 00:48:38;;;;;;;11.40;10.50;;;23.30;99.90;;;;;;5013916;28;20444;-48
2023/08/19 00:51:05;;;;;;;11.30;10.30;;;23.20;99.90;;;;;;5014196;28;20530;-48
2023/08/19 00:53:33;;;;;;;11.37;10.53;;;23.20;99.90;;;;;;5014122;28;20429;-48
2023/08/19 00:56:01;;;;;;;12.53;11.23;;;23.20;99.90;;;;;;5012464;28;20964;-49
2023/08/19 00:58:28;;;;;;;13.37;11.60;;;23.20;99.90;;;;;;5013588;28;21001;-47
2023/08/19 01:00:55;;;;;;;10.87;9.87;;;23.20;99.90;;;;;;5012698;28;20559;-49
2023/08/19 01:03:21;;;;;;;11.37;10.27;;;23.10;99.90;;;;;;5013693;28;20525;-48
2023/08/19 01:06:00;;;;;;;12.53;11.00;;;23.10;99.90;;;;;;5013791;28;20830;-48
2023/08/19 01:08:35;;;;;;;11.47;10.27;;;23.10;99.90;;;;;;5012183;28;20483;-48
2023/08/19 01:11:11;;;;;;;12.53;11.33;;;23.00;99.90;;;;;;5012827;28;20455;-49
2023/08/19 01:13:44;;;;;;;11.57;10.57;;;23.00;99.90;;;;;;5013721;28;20443;-48
2023/08/19 01:16:20;;;;;;;11.70;10.60;;;23.10;99.90;;;;;;5012254;28;20460;-48
2023/08/19 01:18:48;;;;;;;12.53;11.50;;;23.00;99.90;;;;;;5013703;28;20854;-49
2023/08/19 01:21:15;;;;;;;11.73;10.57;;;22.90;99.90;;;;;;5013584;28;20792;-48
2023/08/19 01:23:44;;;;;;;11.60;10.50;;;22.90;99.90;;;;;;5013343;28;20485;-48
2023/08/19 01:26:12;;;;;;;10.67;9.77;;;22.90;99.90;;;;;;5011807;28;20466;-48
2023/08/19 01:28:38;;;;;;;12.77;11.57;;;22.90;99.90;;;;;;5011811;28;20517;-48
2023/08/19 01:31:05;;;;;;;11.90;10.80;;;22.80;99.90;;;;;;5011949;28;20454;-48
2023/08/19 01:33:33;;;;;;;11.50;10.40;;;22.90;99.90;;;;;;5011904;28;20422;-48
2023/08/19 01:36:09;;;;;;;11.00;10.03;;;22.90;99.90;;;;;;5011923;28;20467;-48
2023/08/19 01:38:40;;;;;;;13.90;11.03;;;22.80;99.90;;;;;;5011556;28;20460;-48
2023/08/19 01:41:09;;;;;;;12.53;11.43;;;22.80;99.90;;;;;;5013137;28;20949;-48
2023/08/19 01:43:37;;;;;;;12.17;11.17;;;22.80;99.90;;;;;;5011636;28;21013;-48
2023/08/19 01:46:04;;;;;;;13.30;11.97;;;22.80;99.90;;;;;;5012722;28;20843;-48
2023/08/19 01:48:30;;;;;;;11.70;10.70;;;22.80;99.90;;;;;;5012631;28;20440;-48
2023/08/19 01:50:57;;;;;;;12.70;11.53;;;22.70;99.90;;;;;;5013057;28;20435;-48
2023/08/19 01:53:24;;;;;;;13.70;12.40;;;22.70;99.90;;;;;;5013174;28;20545;-48
2023/08/19 01:55:51;;;;;;;12.70;11.40;;;22.70;99.90;;;;;;5012785;28;20502;-48
2023/08/19 01:58:17;;;;;;;12.60;11.50;;;22.70;99.90;;;;;;5012571;28;20517;-49
2023/08/19 02:00:46;;;;;;;12.23;11.20;;;22.70;99.90;;;;;;5011519;28;20845;-48
2023/08/19 02:03:12;;;;;;;13.70;12.60;;;22.70;99.90;;;;;;5013124;28;20483;-49
2023/08/19 02:05:39;;;;;;;12.30;11.20;;;22.60;99.90;;;;;;5013020;28;20468;-48
2023/08/19 02:08:06;;;;;;;13.50;12.00;;;22.60;99.90;;;;;;5011437;28;20462;-49
2023/08/19 02:10:33;;;;;;;12.70;11.40;;;22.60;99.90;;;;;;5011838;28;20447;-48
2023/08/19 02:12:59;;;;;;;12.37;11.37;;;22.60;99.90;;;;;;5013524;28;20435;-49
2023/08/19 02:15:26;;;;;;;13.10;11.80;;;22.60;99.90;;;;;;5012957;28;20801;-49
2023/08/19 02:17:55;;;;;;;13.83;12.40;;;22.60;99.90;;;;;;5010957;28;20443;-48
2023/08/19 02:20:21;;;;;;;12.50;11.50;;;22.50;99.90;;;;;;5013001;28;20517;-48
2023/08/19 02:22:48;;;;;;;12.93;11.73;;;22.50;99.90;;;;;;5012794;28;20523;-48
2023/08/19 02:25:15;;;;;;;12.73;11.73;;;22.50;99.90;;;;;;5012813;28;20462;-48
2023/08/19 02:27:43;;;;;;;14.23;12.80;;;22.50;99.90;;;;;;5012258;28;20476;-48
2023/08/19 02:30:11;;;;;;;13.60;12.33;;;22.50;99.90;;;;;;5011356;28;20445;-48
2023/08/19 02:32:39;;;;;;;13.13;12.03;;;22.50;99.90;;;;;;5012619;28;20470;-49
2023/08/19 02:35:08;;;;;;;13.20;12.10;;;22.50;99.90;;;;;;5011423;28;20460;-48
2023/08/19 02:37:34;;;;;;;13.17;12.10;;;22.40;99.90;;;;;;5011461;28;20439;-48
2023/08/19 02:40:03;;;;;;;13.10;12.00;;;22.40;99.90;;;;;;5012407;28;20434;-47
2023/08/19 02:42:30;;;;;;;13.00;11.87;;;22.40;99.90;;;;;;5012296;28;20465;-48
2023/08/19 02:44:58;;;;;;;13.00;11.90;;;22.30;99.90;;;;;;5010752;28;20490;-49
2023/08/19 02:47:25;;;;;;;14.27;12.67;;;22.40;99.90;;;;;;5010518;28;20458;-49
2023/08/19 02:49:51;;;;;;;12.80;11.57;;;22.40;99.90;;;;;;5010812;28;20455;-49
2023/08/19 02:52:20;;;;;;;13.93;12.43;;;22.30;99.90;;;;;;5012296;28;20463;-49
2023/08/19 02:54:47;;;;;;;13.10;11.80;;;22.30;99.90;;;;;;5010734;28;20467;-48
2023/08/19 02:57:14;;;;;;;12.87;11.67;;;22.30;99.90;;;;;;5011855;28;20474;-48
2023/08/19 02:59:39;;;;;;;13.57;12.47;;;22.30;99.90;;;;;;5012175;28;20466;-48
2023/08/19 03:02:06;;;;;;;13.57;12.30;;;22.30;99.90;;;;;;5010847;28;20481;-48
2023/08/19 03:04:32;;;;;;;14.37;12.90;;;22.30;99.90;;;;;;5010663;28;20241;-48
2023/08/19 03:06:59;;;;;;;14.07;12.83;;;22.20;99.90;;;;;;5012259;28;21091;-48
2023/08/19 03:09:27;;;;;;;13.43;12.30;;;22.20;99.90;;;;;;5012876;28;20443;-48
2023/08/19 03:11:54;;;;;;;13.50;12.30;;;22.20;99.90;;;;;;5011474;28;20441;-48
2023/08/19 03:14:21;;;;;;;13.70;12.30;;;22.20;99.90;;;;;;5012536;28;20457;-47
2023/08/19 03:16:49;;;;;;;13.53;12.27;;;22.20;99.90;;;;;;5012904;28;20437;-47
2023/08/19 03:19:16;;;;;;;13.53;12.27;;;22.20;99.90;;;;;;5011607;28;20852;-48
2023/08/19 03:21:43;;;;;;;13.60;12.40;;;22.20;99.90;;;;;;5011580;28;20757;-47
2023/08/19 03:24:11;;;;;;;13.83;12.63;;;22.10;99.90;;;;;;5011130;28;20489;-48
2023/08/19 03:26:39;;;;;;;12.73;11.53;;;22.10;99.90;;;;;;5012390;28;20427;-47
2023/08/19 03:29:06;;;;;;;13.80;12.47;;;22.10;99.90;;;;;;5011723;28;20541;-48
2023/08/19 03:31:33;;;;;;;15.00;13.57;;;22.10;99.90;;;;;;5011318;28;20505;-48
2023/08/19 03:33:59;;;;;;;13.10;11.27;;;22.00;99.90;;;;;;5010999;28;20500;-48
2023/08/19 03:36:26;;;;;;;14.17;12.90;;;22.00;99.90;;;;;;5011302;28;20449;-47
2023/08/19 03:38:53;;;;;;;14.27;12.93;;;22.00;99.90;;;;;;5011299;28;20825;-48
2023/08/19 03:41:19;;;;;;;14.87;13.63;;;22.00;99.90;;;;;;5010524;28;20445;-48
2023/08/19 03:43:47;;;;;;;14.77;13.47;;;22.00;99.90;;;;;;5011538;28;20475;-48
2023/08/19 03:46:14;;;;;;;15.03;13.63;;;22.00;99.90;;;;;;5012128;28;20446;-47
2023/08/19 03:48:41;;;;;;;13.93;12.70;;;22.00;99.90;;;;;;5012997;28;20440;-48
2023/08/19 03:51:08;;;;;;;15.70;14.30;;;22.00;99.90;;;;;;5013845;28;20457;-48
2023/08/19 03:53:34;;;;;;;14.73;13.30;;;22.00;99.90;;;;;;5015091;28;20860;-48
2023/08/19 03:56:02;;;;;;;14.03;12.93;;;22.00;99.90;;;;;;5013862;28;20470;-48
2023/08/19 03:58:29;;;;;;;16.83;14.10;;;22.00;99.90;;;;;;5013442;28;20447;-48
2023/08/19 04:01:05;;;;;;;14.83;13.50;;;22.00;99.90;;;;;;5013948;28;20455;-47
2023/08/19 04:03:33;;;;;;;16.60;15.00;;;22.00;99.90;;;;;;5013416;28;20556;-47
2023/08/19 04:05:59;;;;;;;16.80;14.27;;;22.00;99.90;;;;;;5014840;28;20461;-47
2023/08/19 04:08:26;;;;;;;14.77;13.60;;;22.00;99.90;;;;;;5014628;28;20470;-48
2023/08/19 04:10:53;;;;;;;15.97;14.67;;;22.00;99.90;;;;;;5014967;28;20661;-47
2023/08/19 04:13:19;;;;;;;16.43;15.00;;;22.00;99.90;;;;;;5014825;28;20434;-48
2023/08/19 04:15:47;;;;;;;16.67;15.00;;;22.00;99.90;;;;;;5013637;28;20483;-49
2023/08/19 04:18:15;;;;;;;16.53;15.10;;;22.00;99.90;;;;;;5014131;28;20448;-47
2023/08/19 04:20:42;;;;;;;16.37;14.60;;;22.00;99.90;;;;;;5013310;28;20454;-48
2023/08/19 04:23:08;;;;;;;15.83;14.43;;;22.00;99.90;;;;;;5013383;28;20470;-48
2023/08/19 04:25:35;;;;;;;16.50;15.10;;;22.00;99.90;;;;;;5014289;28;20486;-48
2023/08/19 04:28:02;;;;;;;16.13;14.80;;;22.10;99.90;;;;;;5012932;28;20447;-48
2023/08/19 04:30:30;;;;;;;16.73;15.33;;;22.10;99.90;;;;;;5013241;28;20454;-49
2023/08/19 04:32:58;;;;;;;15.90;14.40;;;22.10;99.90;;;;;;5013313;28;20519;-47
2023/08/19 04:35:28;;;;;;;16.87;15.27;;;22.10;99.90;;;;;;5012953;28;20477;-47
2023/08/19 04:37:55;;;;;;;17.53;15.83;;;22.20;99.90;;;;;;5012664;28;20973;-48
2023/08/19 04:40:21;;;;;;;17.60;16.10;;;22.20;99.90;;;;;;5012963;28;20524;-47
2023/08/19 04:42:48;;;;;;;16.97;15.57;;;22.20;99.90;;;;;;5013007;28;20485;-48
2023/08/19 04:45:16;;;;;;;16.77;15.47;;;22.30;99.90;;;;;;5012392;28;20501;-47
2023/08/19 04:47:46;;;;;;;16.70;15.20;;;22.40;99.90;;;;;;5012419;28;20481;-48
2023/08/19 04:50:13;;;;;;;15.60;14.37;;;22.30;99.90;;;;;;5012829;28;20451;-48
2023/08/19 04:52:41;;;;;;;16.90;15.40;;;22.40;99.90;;;;;;5014126;28;21050;-49
2023/08/19 04:55:09;;;;;;;17.17;15.60;;;22.50;99.90;;;;;;5012667;28;20478;-48
2023/08/19 04:57:36;;;;;;;16.17;14.77;;;22.50;99.90;;;;;;5012216;28;20956;-49
2023/08/19 05:00:03;;;;;;;17.80;16.27;;;22.60;99.90;;;;;;5012058;28;20454;-48
2023/08/19 05:02:30;;;;;;;18.47;16.87;;;22.70;99.90;;;;;;5012706;28;20478;-48
2023/08/19 05:04:57;;;;;;;17.30;15.80;;;22.70;99.90;;;;;;5012378;28;20487;-48
2023/08/19 05:07:24;;;;;;;18.23;16.63;;;22.80;99.90;;;;;;5011758;28;20544;-48
2023/08/19 05:09:53;;;;;;;18.33;16.80;;;22.80;99.90;;;;;;5012475;28;20490;-48
2023/08/19 05:12:19;;;;;;;17.57;15.87;;;23.00;99.90;;;;;;5012309;28;20487;-48
2023/08/19 05:14:47;;;;;;;17.87;16.33;;;23.10;99.90;;;;;;5012245;28;20566;-48
2023/08/19 05:17:13;;;;;;;16.97;15.63;;;23.20;99.90;;;;;;5013123;28;20439;-48
2023/08/19 05:19:40;;;;;;;16.93;15.40;;;23.20;99.90;;;;;;5013390;28;20526;-48
2023/08/19 05:22:07;;;;;;;22.03;19.97;;;23.40;99.90;;;;;;5013432;28;20458;-49
2023/08/19 05:24:34;;;;;;;18.87;16.87;;;23.40;99.90;;;;;;5011831;28;20906;-48
2023/08/19 05:27:02;;;;;;;17.13;15.50;;;23.50;99.90;;;;;;5011614;28;20455;-47
2023/08/19 05:29:29;;;;;;;17.40;15.57;;;23.60;99.90;;;;;;5013391;28;20448;-47
2023/08/19 05:31:57;;;;;;;17.07;15.57;;;23.70;99.90;;;;;;5013304;28;20436;-47
2023/08/19 05:34:24;;;;;;;17.20;15.60;;;23.70;99.90;;;;;;5013125;28;20452;-47
2023/08/19 05:36:51;;;;;;;17.57;16.07;;;23.80;99.90;;;;;;5012888;28;20428;-48
2023/08/19 05:39:18;;;;;;;17.57;15.97;;;23.90;99.90;;;;;;5013182;28;20430;-47
2023/08/19 05:41:45;;;;;;;17.40;15.60;;;24.00;99.90;;;;;;5013255;28;20448;-48
2023/08/19 05:44:12;;;;;;;17.07;15.57;;;24.10;99.90;;;;;;5012852;28;20487;-48
2023/08/19 05:46:39;;;;;;;17.10;15.70;;;24.20;99.90;;;;;;5012970;28;20426;-48
2023/08/19 05:49:06;;;;;;;16.80;15.30;;;24.30;99.90;;;;;;5013304;28;20497;-48
2023/08/19 05:51:32;;;;;;;15.70;14.40;;;24.30;99.90;;;;;;5013359;28;20804;-48
2023/08/19 05:54:02;;;;;;;16.50;15.13;;;24.30;99.90;;;;;;5012854;28;20543;-48
2023/08/19 05:56:29;;;;;;;18.87;16.47;;;24.40;99.90;;;;;;5013034;28;20450;-47
2023/08/19 05:58:56;;;;;;;16.73;15.27;;;24.50;99.90;;;;;;5012487;28;20440;-49
2023/08/19 06:01:24;;;;;;;18.00;16.50;;;24.50;99.90;;;;;;5012824;28;20432;-47
2023/08/19 06:03:51;;;;;;;18.10;16.07;;;24.40;99.90;;;;;;5012692;28;20527;-47
2023/08/19 06:06:18;;;;;;;16.10;14.90;;;24.50;99.90;;;;;;5012493;28;20488;-47
2023/08/19 06:08:45;;;;;;;17.70;16.00;;;24.50;99.90;;;;;;5012308;28;20446;-47
2023/08/19 06:11:11;;;;;;;16.67;15.30;;;24.50;99.90;;;;;;5012311;28;20506;-47
2023/08/19 06:13:38;;;;;;;18.70;17.00;;;24.50;99.90;;;;;;5012498;28;20780;-50
2023/08/19 06:16:06;;;;;;;16.53;15.10;;;24.50;99.90;;;;;;5012785;28;20459;-47
2023/08/19 06:18:34;;;;;;;16.70;15.40;;;24.50;99.90;;;;;;5012338;28;20464;-48
2023/08/19 06:21:04;;;;;;;17.13;15.70;;;24.50;99.90;;;;;;5012664;28;20527;-47
2023/08/19 06:23:30;;;;;;;18.33;16.83;;;24.40;99.90;;;;;;5012595;28;20432;-48
2023/08/19 06:25:57;;;;;;;16.73;15.43;;;24.40;99.90;;;;;;5012486;28;20491;-47
2023/08/19 06:28:24;;;;;;;17.73;16.23;;;24.40;99.90;;;;;;5012504;28;20470;-47
2023/08/19 06:30:52;;;;;;;16.60;15.00;;;24.40;99.90;;;;;;5012525;28;20436;-47
2023/08/19 06:33:19;;;;;;;17.57;15.97;;;24.40;99.90;;;;;;5012582;28;20810;-48
2023/08/19 06:35:49;;;;;;;17.77;16.27;;;24.40;99.90;;;;;;5011998;28;20467;-47
2023/08/19 06:38:19;;;;;;;18.40;15.17;;;24.40;99.90;;;;;;5011843;28;20482;-48
2023/08/19 06:40:55;;;;;;;18.27;16.67;;;24.40;99.90;;;;;;5012370;28;20798;-47
2023/08/19 06:43:24;;;;;;;19.10;17.47;;;24.40;99.90;;;;;;5012285;28;20594;-48
2023/08/19 06:45:52;;;;;;;17.50;16.10;;;24.30;99.90;;;;;;5011909;28;20488;-46
2023/08/19 06:48:20;;;;;;;18.77;17.00;;;24.30;99.90;;;;;;5011749;28;20428;-48
2023/08/19 06:50:48;;;;;;;16.33;14.83;;;24.20;99.90;;;;;;5012017;28;20977;-49
2023/08/19 06:53:16;;;;;;;18.63;16.97;;;24.20;99.90;;;;;;5012137;28;20432;-48
2023/08/19 06:55:50;;;;;;;19.93;18.23;;;24.10;99.90;;;;;;5011781;28;20459;-48
2023/08/19 06:58:23;;;;;;;18.93;17.53;;;24.10;99.90;;;;;;5011468;28;20410;-48
2023/08/19 07:00:52;;;;;;;19.83;17.97;;;24.10;99.90;;;;;;5011857;28;20440;-48
2023/08/19 07:03:20;;;;;;;18.47;16.77;;;24.10;99.90;;;;;;5012045;28;20462;-48
2023/08/19 07:05:50;;;;;;;16.97;15.50;;;24.10;99.90;;;;;;5011466;28;20486;-48
2023/08/19 07:08:19;;;;;;;18.50;16.90;;;24.20;99.90;;;;;;5011984;28;20440;-48
2023/08/19 07:10:46;;;;;;;17.17;15.67;;;24.30;99.90;;;;;;5011904;28;20447;-47
2023/08/19 07:13:13;;;;;;;18.63;17.00;;;24.40;99.90;;;;;;5011924;28;20439;-48
2023/08/19 07:15:43;;;;;;;18.47;16.93;;;24.50;99.90;;;;;;5011645;28;20448;-48
2023/08/19 07:18:14;;;;;;;17.40;16.00;;;24.50;99.90;;;;;;5011753;28;20531;-48
2023/08/19 07:20:41;;;;;;;17.27;15.87;;;24.50;99.90;;;;;;5011820;28;20447;-49
2023/08/19 07:23:10;;;;;;;17.90;16.20;;;24.60;99.90;;;;;;5012721;28;20440;-48
2023/08/19 07:25:37;;;;;;;17.30;15.80;;;24.70;99.90;;;;;;5015654;28;20477;-49
2023/08/19 07:28:05;;;;;;;17.67;16.07;;;24.70;99.90;;;;;;5015068;28;20494;-49
2023/08/19 07:30:32;;;;;;;18.13;16.60;;;24.80;99.90;;;;;;5015382;28;21203;-49
2023/08/19 07:32:59;;;;;;;17.17;15.67;;;24.90;99.90;;;;;;5014328;28;20451;-49
2023/08/19 07:35:26;;;;;;;18.20;16.50;;;24.90;99.90;;;;;;5015455;28;20826;-47
2023/08/19 07:37:53;;;;;;;16.30;14.90;;;25.00;99.90;;;;;;5014974;28;20435;-48
2023/08/19 07:40:21;;;;;;;17.63;16.23;;;25.00;99.90;;;;;;5015312;28;20437;-48
2023/08/19 07:42:47;;;;;;;16.67;15.37;;;25.10;99.90;;;;;;5015439;28;20436;-49
2023/08/19 07:45:14;;;;;;;17.40;15.80;;;25.10;99.90;;;;;;5014783;28;20488;-49
2023/08/19 07:47:40;;;;;;;17.30;15.83;;;25.20;99.90;;;;;;5014834;28;20433;-48
2023/08/19 07:50:08;;;;;;;17.23;15.77;;;25.20;99.90;;;;;;5015085;28;20436;-49
2023/08/19 07:52:34;;;;;;;17.03;15.23;;;25.20;99.90;;;;;;5014798;28;20934;-49
2023/08/19 07:55:01;;;;;;;18.07;16.37;;;25.30;99.90;;;;;;5014933;28;20455;-49
2023/08/19 07:57:29;;;;;;;19.40;17.70;;;25.30;99.90;;;;;;5014541;28;20894;-49
2023/08/19 07:59:55;;;;;;;18.20;16.47;;;25.40;99.90;;;;;;5015146;28;20790;-49
2023/08/19 08:02:22;;;;;;;17.60;16.20;;;25.40;99.90;;;;;;5014874;28;20436;-47
2023/08/19 08:04:49;;;;;;;18.30;16.50;;;25.40;99.90;;;;;;5014507;28;20464;-50
2023/08/19 08:07:15;;;;;;;17.50;15.80;;;25.50;99.90;;;;;;5014185;28;20458;-48
2023/08/19 08:09:43;;;;;;;17.77;16.17;;;25.50;99.90;;;;;;5014853;28;20428;-48
2023/08/19 08:12:10;;;;;;;16.07;14.80;;;25.60;99.90;;;;;;5014679;28;20476;-48
2023/08/19 08:14:38;;;;;;;16.93;15.23;;;25.70;99.90;;;;;;5014752;28;21075;-49
2023/08/19 08:17:05;;;;;;;17.43;16.03;;;25.60;99.90;;;;;;5014550;28;20441;-49
2023/08/19 08:19:31;;;;;;;17.13;15.40;;;25.70;99.90;;;;;;5014825;28;20429;-48
2023/08/19 08:21:58;;;;;;;15.90;14.50;;;25.70;99.90;;;;;;5015108;28;20437;-48
2023/08/19 08:24:25;;;;;;;16.30;14.70;;;25.80;99.90;;;;;;5013657;28;21018;-49
2023/08/19 08:26:52;;;;;;;15.70;14.17;;;25.80;99.90;;;;;;5014127;28;20690;-49
2023/08/19 08:29:19;;;;;;;14.37;13.17;;;25.80;99.90;;;;;;5014201;28;20432;-48
2023/08/19 08:31:46;;;;;;;15.40;13.90;;;25.80;99.90;;;;;;5014304;28;20794;-48
2023/08/19 08:34:13;;;;;;;14.57;13.27;;;25.90;99.90;;;;;;5014381;28;20970;-49
2023/08/19 08:36:40;;;;;;;15.00;13.60;;;26.00;99.90;;;;;;5014123;28;20448;-48
2023/08/19 08:39:06;;;;;;;15.90;14.00;;;26.00;99.90;;;;;;5014802;28;20440;-49
2023/08/19 08:41:38;;;;;;;14.70;13.57;;;26.10;99.90;;;;;;5014454;28;20858;-48
2023/08/19 08:44:07;;;;;;;13.90;12.70;;;26.10;99.90;;;;;;5014897;28;20457;-48
2023/08/19 08:46:34;;;;;;;14.40;13.20;;;26.20;99.90;;;;;;5014327;28;20863;-47
2023/08/19 08:49:04;;;;;;;13.43;12.13;;;26.20;99.90;;;;;;5013363;28;20464;-48
2023/08/19 08:51:31;;;;;;;13.20;12.20;;;26.20;99.90;;;;;;5013913;28;20937;-47
2023/08/19 08:54:00;;;;;;;12.63;11.63;;;26.30;99.90;;;;;;5013505;28;20490;-49
2023/08/19 08:56:27;;;;;;;12.87;11.83;;;26.30;99.90;;;;;;5013576;28;20440;-49
2023/08/19 08:58:54;;;;;;;12.83;11.83;;;26.30;99.90;;;;;;5013328;28;20431;-47
2023/08/19 09:01:23;;;;;;;12.60;11.27;;;26.40;99.90;;;;;;5013449;28;20531;-48
2023/08/19 09:03:52;;;;;;;11.43;10.53;;;26.40;99.90;;;;;;5013546;28;20933;-47
2023/08/19 09:06:20;;;;;;;14.07;12.70;;;26.40;99.90;;;;;;5013533;28;20484;-48
2023/08/19 09:08:49;;;;;;;13.80;12.60;;;26.40;99.90;;;;;;5013465;28;20428;-48
2023/08/19 09:11:22;;;;;;;13.10;12.03;;;26.50;99.90;;;;;;5013873;28;20936;-48
2023/08/19 09:13:55;;;;;;;12.87;11.17;;;26.60;99.90;;;;;;5014067;28;20442;-48
2023/08/19 09:16:22;;;;;;;14.07;12.23;;;26.60;99.90;;;;;;5013700;28;20912;-48
2023/08/19 09:18:49;;;;;;;13.57;12.17;;;26.60;99.90;;;;;;5013769;28;20439;-49
2023/08/19 09:21:16;;;;;;;11.30;10.40;;;24.50;99.90;;;;;;5014542;28;20450;-47
2023/08/19 09:23:44;;;;;;;12.53;11.13;;;26.70;99.90;;;;;;5014377;28;20828;-48
2023/08/19 09:26:11;;;;;;;12.17;11.07;;;26.70;99.90;;;;;;5014449;28;20475;-48
2023/08/19 09:28:37;;;;;;;10.93;10.13;;;26.80;99.90;;;;;;5012564;28;20443;-49
2023/08/19 09:31:17;;;;;;;10.90;10.10;;;26.80;99.90;;;;;;5014372;28;20511;-48
2023/08/19 09:33:44;;;;;;;11.40;10.30;;;26.90;99.90;;;;;;5014297;28;20935;-48
2023/08/19 09:36:11;;;;;;;12.30;11.20;;;27.00;99.90;;;;;;5014149;28;20436;-49
2023/08/19 09:38:37;;;;;;;12.90;11.70;;;27.00;99.90;;;;;;5014119;28;20432;-46
2023/08/19 09:41:07;;;;;;;15.20;12.00;;;26.90;99.90;;;;;;5014203;28;20459;-48
2023/08/19 09:43:34;;;;;;;12.43;11.20;;;27.00;99.90;;;;;;5013963;28;20490;-49
2023/08/19 09:46:01;;;;;;;11.63;10.60;;;27.10;99.90;;;;;;5013806;28;20491;-50
2023/08/19 09:48:28;;;;;;;10.93;9.87;;;27.20;99.90;;;;;;5013505;28;20432;-53
2023/08/19 09:50:54;;;;;;;12.43;9.07;;;26.90;99.90;;;;;;5014195;28;20444;-50
2023/08/19 09:53:21;;;;;;;10.40;9.40;;;27.20;99.90;;;;;;5012463;28;20449;-49
2023/08/19 09:55:49;;;;;;;11.93;9.63;;;27.20;99.90;;;;;;5013601;28;20492;-51
2023/08/19 09:58:18;;;;;;;10.77;9.47;;;27.30;99.90;;;;;;5013272;28;20525;-51
2023/08/19 10:00:45;;;;;;;9.37;8.50;;;27.20;99.90;;;;;;5013596;28;20855;-50
2023/08/19 10:03:11;;;;;;;9.60;8.70;;;27.60;99.90;;;;;;5013297;28;20439;-50
2023/08/19 10:05:40;;;;;;;9.73;8.83;;;27.40;99.90;;;;;;5012991;28;20476;-50
2023/08/19 10:08:10;;;;;;;8.80;8.00;;;27.40;99.90;;;;;;5012309;28;20435;-51
2023/08/19 10:10:39;;;;;;;8.90;8.10;;;27.40;99.90;;;;;;5013422;28;20439;-50
2023/08/19 10:13:06;;;;;;;9.10;8.27;;;27.50;99.90;;;;;;5012862;28;20493;-50
2023/08/19 10:15:36;;;;;;;9.50;8.77;;;27.50;99.90;;;;;;5012956;28;20464;-51
2023/08/19 10:18:08;;;;;;;9.50;8.50;;;27.50;99.90;;;;;;5012177;28;20439;-50
2023/08/19 10:20:36;;;;;;;11.57;9.30;;;27.60;99.90;;;;;;5012872;28;20467;-50
2023/08/19 10:23:05;;;;;;;9.97;8.97;;;27.60;99.90;;;;;;5011643;28;20451;-50
2023/08/19 10:25:32;;;;;;;9.37;8.63;;;27.80;99.90;;;;;;5012724;28;20467;-49
2023/08/19 10:28:11;;;;;;;9.77;8.77;;;27.80;99.90;;;;;;5011059;28;20449;-50
2023/08/19 10:30:39;;;;;;;11.43;10.40;;;27.90;99.90;;;;;;5012765;28;20447;-50
2023/08/19 10:33:36;;;;;;;9.37;8.47;;;27.90;99.90;;;;;;5011541;28;20453;-50
2023/08/19 10:36:04;;;;;;;9.93;9.13;;;27.90;99.70;;;;;;5012656;28;20452;-50
2023/08/19 10:38:41;;;;;;;11.30;10.13;;;27.90;99.90;;;;;;5012510;28;20441;-50
2023/08/19 10:41:17;;;;;;;10.47;9.47;;;27.70;99.70;;;;;;5012964;28;21004;-52
2023/08/19 10:44:00;;;;;;;10.50;9.60;;;28.00;99.80;;;;;;5012979;28;20786;-51
2023/08/19 10:46:37;;;;;;;10.50;9.60;;;28.10;99.50;;;;;;5012582;28;21101;-51
2023/08/19 10:49:11;;;;;;;10.27;9.30;;;28.20;99.20;;;;;;5013102;28;20432;-51
2023/08/19 10:51:50;;;;;;;10.67;9.70;;;28.20;99.10;;;;;;5012981;28;20799;-52
2023/08/19 10:54:26;;;;;;;10.00;9.10;;;28.30;99.20;;;;;;5012813;28;20452;-51
2023/08/19 10:57:04;;;;;;;10.73;9.73;;;28.30;99.00;;;;;;5012112;28;20436;-51
2023/08/19 10:59:32;;;;;;;10.57;9.63;;;28.30;99.00;;;;;;5018375;28;20432;-50
2023/08/19 11:02:00;;;;;;;10.27;9.47;;;28.30;99.00;;;;;;5019217;28;20965;-50
2023/08/19 11:04:27;;;;;;;10.70;9.70;;;28.30;99.00;;;;;;5019403;28;20460;-51
2023/08/19 11:06:55;;;;;;;9.83;9.03;;;28.30;99.00;;;;;;5018564;28;20486;-50
2023/08/19 11:09:26;;;;;;;10.03;9.23;;;28.20;98.70;;;;;;5018845;28;20466;-50
2023/08/19 11:11:53;;;;;;;12.30;11.10;;;28.40;98.50;;;;;;5019120;28;20439;-51
2023/08/19 11:14:19;;;;;;;10.37;9.57;;;28.40;98.50;;;;;;5019044;28;20463;-50
2023/08/19 11:16:49;;;;;;;10.20;9.33;;;28.50;98.60;;;;;;5018850;28;20444;-51
2023/08/19 11:19:16;;;;;;;11.57;10.47;;;28.50;98.40;;;;;;5019223;28;20462;-50
2023/08/19 11:21:45;;;;;;;11.47;10.57;;;28.50;98.30;;;;;;5017630;28;20444;-51
2023/08/19 11:24:12;;;;;;;10.40;9.60;;;28.50;98.20;;;;;;5019306;28;20467;-51
2023/08/19 11:26:39;;;;;;;11.00;9.63;;;28.60;98.30;;;;;;5018473;28;20566;-51
2023/08/19 11:29:06;;;;;;;11.47;10.57;;;28.60;98.30;;;;;;5018997;28;20443;-50
2023/08/19 11:31:33;;;;;;;11.90;11.00;;;28.70;98.30;;;;;;5018608;28;20450;-51
2023/08/19 11:34:00;;;;;;;11.40;10.30;;;28.60;98.00;;;;;;5019080;28;20451;-51
2023/08/19 11:36:27;;;;;;;12.07;10.87;;;28.60;98.30;;;;;;5018878;28;20436;-51
2023/08/19 11:38:56;;;;;;;12.50;11.40;;;28.70;98.20;;;;;;5018140;28;20975;-49
2023/08/19 11:41:23;;;;;;;11.30;10.50;;;28.80;98.10;;;;;;5018954;28;20429;-52
2023/08/19 11:43:53;;;;;;;11.00;10.00;;;28.90;97.50;;;;;;5018029;28;20962;-50
2023/08/19 11:46:20;;;;;;;11.30;10.27;;;28.90;97.80;;;;;;5018492;28;20484;-52
2023/08/19 11:48:47;;;;;;;10.70;9.90;;;28.90;97.60;;;;;;5018517;28;20794;-50
2023/08/19 11:51:14;;;;;;;12.67;9.50;;;29.00;97.30;;;;;;5018690;28;20526;-50
2023/08/19 11:53:42;;;;;;;10.10;9.30;;;29.10;97.10;;;;;;5018693;28;20464;-51
2023/08/19 11:56:09;;;;;;;11.73;10.73;;;29.10;96.80;;;;;;5018277;28;20448;-51
2023/08/19 11:58:49;;;;;;;10.50;9.50;;;29.20;96.80;;;;;;5017687;28;20459;-51
2023/08/19 12:01:16;;;;;;;11.33;10.33;;;29.20;96.70;;;;;;5018491;28;20435;-51
2023/08/19 12:03:44;;;;;;;9.80;8.90;;;29.20;96.80;;;;;;5018105;28;20451;-51
2023/08/19 12:06:10;;;;;;;9.60;8.70;;;29.20;96.20;;;;;;5017963;28;20480;-52
2023/08/19 12:08:40;;;;;;;9.00;8.27;;;29.20;95.90;;;;;;5017734;28;20432;-52
2023/08/19 12:11:07;;;;;;;9.33;8.47;;;29.30;95.40;;;;;;5014962;28;20447;-53
2023/08/19 12:13:35;;;;;;;11.67;8.13;;;29.30;95.10;;;;;;5014980;28;20435;-51
2023/08/19 12:16:02;;;;;;;9.90;9.00;;;29.30;94.80;;;;;;5015204;28;20459;-51
2023/08/19 12:18:32;;;;;;;9.13;8.33;;;29.30;94.70;;;;;;5014209;28;20440;-50
2023/08/19 12:21:00;;;;;;;9.10;8.30;;;29.40;94.50;;;;;;5014493;28;20464;-51
2023/08/19 12:23:26;;;;;;;9.47;8.67;;;29.40;93.70;;;;;;5014512;28;20429;-51
2023/08/19 12:25:55;;;;;;;10.17;9.27;;;29.50;93.60;;;;;;5014363;28;20460;-52
2023/08/19 12:28:22;;;;;;;10.70;9.60;;;29.50;93.60;;;;;;5014355;28;20437;-50
2023/08/19 12:30:52;;;;;;;10.80;8.73;;;29.50;93.70;;;;;;5014443;28;20523;-50
2023/08/19 12:33:19;;;;;;;12.13;9.60;;;29.50;93.60;;;;;;5014459;28;20428;-52
2023/08/19 12:35:47;;;;;;;9.50;8.77;;;29.60;93.20;;;;;;5014633;28;20456;-51